sensor_id;sensor_type;location;lat;lon;timestamp;P1;durP1;ratioP1;P2;durP2;ratioP2
74632;SDS011;63139;52.018;8.552;2023-07-20T00:00:24;6.22;;;2.90;;
74632;SDS011;63139;52.018;8.552;2023-07-20T00:05:43;4.00;;;3.08;;
74632;SDS011;63139;52.018;8.552;2023-07-20T00:08:11;6.28;;;4.30;;
74632;SDS011;63139;52.018;8.552;2023-07-20T00:10:40;5.00;;;4.07;;
74632;SDS011;63139;52.018;8.552;2023-07-20T00:13:08;9.10;;;4.90;;
74632;SDS011;63139;52.018;8.552;2023-07-20T00:15:36;5.68;;;4.60;;
74632;SDS011;63139;52.018;8.552;2023-07-20T00:18:04;7.05;;;4.32;;
74632;SDS011;63139;52.018;8.552;2023-07-20T00:20:33;6.18;;;4.47;;
74632;SDS011;63139;52.018;8.552;2023-07-20T00:23:01;6.03;;;4.15;;
74632;SDS011;63139;52.018;8.552;2023-07-20T00:25:29;7.70;;;5.70;;
74632;SDS011;63139;52.018;8.552;2023-07-20T00:27:57;6.15;;;4.80;;
74632;SDS011;63139;52.018;8.552;2023-07-20T00:30:25;7.43;;;5.43;;
74632;SDS011;63139;52.018;8.552;2023-07-20T00:32:53;6.75;;;5.07;;
74632;SDS011;63139;52.018;8.552;2023-07-20T00:35:21;7.55;;;4.88;;
74632;SDS011;63139;52.018;8.552;2023-07-20T00:37:51;7.28;;;5.60;;
74632;SDS011;63139;52.018;8.552;2023-07-20T00:40:20;8.95;;;5.90;;
74632;SDS011;63139;52.018;8.552;2023-07-20T00:42:48;6.45;;;5.10;;
74632;SDS011;63139;52.018;8.552;2023-07-20T00:45:22;9.18;;;5.75;;
74632;SDS011;63139;52.018;8.552;2023-07-20T00:47:51;7.85;;;5.97;;
74632;SDS011;63139;52.018;8.552;2023-07-20T00:50:19;8.85;;;6.60;;
74632;SDS011;63139;52.018;8.552;2023-07-20T00:52:47;8.07;;;6.45;;
74632;SDS011;63139;52.018;8.552;2023-07-20T00:55:19;8.48;;;6.68;;
74632;SDS011;63139;52.018;8.552;2023-07-20T00:57:47;8.63;;;6.93;;
74632;SDS011;63139;52.018;8.552;2023-07-20T01:00:15;13.27;;;8.25;;
74632;SDS011;63139;52.018;8.552;2023-07-20T01:02:44;11.52;;;8.23;;
74632;SDS011;63139;52.018;8.552;2023-07-20T01:05:12;8.23;;;7.25;;
74632;SDS011;63139;52.018;8.552;2023-07-20T01:07:43;9.50;;;7.75;;
74632;SDS011;63139;52.018;8.552;2023-07-20T01:10:24;8.27;;;7.07;;
74632;SDS011;63139;52.018;8.552;2023-07-20T01:12:56;10.07;;;7.22;;
74632;SDS011;63139;52.018;8.552;2023-07-20T01:15:25;8.27;;;6.40;;
74632;SDS011;63139;52.018;8.552;2023-07-20T01:17:52;10.07;;;7.55;;
74632;SDS011;63139;52.018;8.552;2023-07-20T01:20:21;9.57;;;8.07;;
74632;SDS011;63139;52.018;8.552;2023-07-20T01:22:55;11.60;;;7.82;;
74632;SDS011;63139;52.018;8.552;2023-07-20T01:25:49;8.75;;;7.13;;
74632;SDS011;63139;52.018;8.552;2023-07-20T01:28:35;12.02;;;7.75;;
74632;SDS011;63139;52.018;8.552;2023-07-20T01:31:18;10.07;;;7.78;;
74632;SDS011;63139;52.018;8.552;2023-07-20T01:33:50;10.32;;;7.78;;
74632;SDS011;63139;52.018;8.552;2023-07-20T01:36:21;10.27;;;7.97;;
74632;SDS011;63139;52.018;8.552;2023-07-20T01:38:51;11.15;;;8.27;;
74632;SDS011;63139;52.018;8.552;2023-07-20T01:41:20;11.30;;;9.77;;
74632;SDS011;63139;52.018;8.552;2023-07-20T01:43:48;15.07;;;11.05;;
74632;SDS011;63139;52.018;8.552;2023-07-20T01:46:17;13.95;;;10.23;;
74632;SDS011;63139;52.018;8.552;2023-07-20T01:48:46;13.43;;;8.95;;
74632;SDS011;63139;52.018;8.552;2023-07-20T01:51:14;13.77;;;10.15;;
74632;SDS011;63139;52.018;8.552;2023-07-20T01:53:44;10.57;;;9.38;;
74632;SDS011;63139;52.018;8.552;2023-07-20T01:56:13;11.82;;;9.13;;
74632;SDS011;63139;52.018;8.552;2023-07-20T01:58:41;15.20;;;11.02;;
74632;SDS011;63139;52.018;8.552;2023-07-20T02:01:09;12.32;;;10.02;;
74632;SDS011;63139;52.018;8.552;2023-07-20T02:03:38;12.43;;;9.07;;
74632;SDS011;63139;52.018;8.552;2023-07-20T02:06:06;14.25;;;10.18;;
74632;SDS011;63139;52.018;8.552;2023-07-20T02:08:34;10.65;;;8.77;;
74632;SDS011;63139;52.018;8.552;2023-07-20T02:11:02;12.80;;;9.68;;
74632;SDS011;63139;52.018;8.552;2023-07-20T02:13:31;12.20;;;10.90;;
74632;SDS011;63139;52.018;8.552;2023-07-20T02:15:58;13.30;;;10.20;;
74632;SDS011;63139;52.018;8.552;2023-07-20T02:18:26;14.18;;;12.02;;
74632;SDS011;63139;52.018;8.552;2023-07-20T02:20:56;11.68;;;8.77;;
74632;SDS011;63139;52.018;8.552;2023-07-20T02:23:24;13.65;;;9.93;;
74632;SDS011;63139;52.018;8.552;2023-07-20T02:25:52;13.52;;;10.27;;
74632;SDS011;63139;52.018;8.552;2023-07-20T02:28:19;11.63;;;9.45;;
74632;SDS011;63139;52.018;8.552;2023-07-20T02:30:47;12.70;;;10.13;;
74632;SDS011;63139;52.018;8.552;2023-07-20T02:33:15;14.15;;;11.38;;
74632;SDS011;63139;52.018;8.552;2023-07-20T02:35:43;14.15;;;10.98;;
74632;SDS011;63139;52.018;8.552;2023-07-20T02:38:12;17.02;;;12.63;;
74632;SDS011;63139;52.018;8.552;2023-07-20T02:40:40;17.25;;;11.88;;
74632;SDS011;63139;52.018;8.552;2023-07-20T02:43:08;15.48;;;10.93;;
74632;SDS011;63139;52.018;8.552;2023-07-20T02:45:39;13.02;;;9.35;;
74632;SDS011;63139;52.018;8.552;2023-07-20T02:48:08;13.75;;;9.68;;
74632;SDS011;63139;52.018;8.552;2023-07-20T02:50:36;12.75;;;10.00;;
74632;SDS011;63139;52.018;8.552;2023-07-20T02:53:04;13.25;;;10.50;;
74632;SDS011;63139;52.018;8.552;2023-07-20T02:55:33;14.90;;;10.75;;
74632;SDS011;63139;52.018;8.552;2023-07-20T02:58:01;14.65;;;11.05;;
74632;SDS011;63139;52.018;8.552;2023-07-20T03:00:29;11.48;;;9.32;;
74632;SDS011;63139;52.018;8.552;2023-07-20T03:02:57;8.65;;;7.47;;
74632;SDS011;63139;52.018;8.552;2023-07-20T03:05:25;14.57;;;10.90;;
74632;SDS011;63139;52.018;8.552;2023-07-20T03:07:54;10.80;;;9.70;;
74632;SDS011;63139;52.018;8.552;2023-07-20T03:10:22;13.35;;;10.27;;
74632;SDS011;63139;52.018;8.552;2023-07-20T03:12:51;11.07;;;9.07;;
74632;SDS011;63139;52.018;8.552;2023-07-20T03:15:19;9.80;;;8.68;;
74632;SDS011;63139;52.018;8.552;2023-07-20T03:17:47;10.68;;;9.55;;
74632;SDS011;63139;52.018;8.552;2023-07-20T03:20:15;12.73;;;10.45;;
74632;SDS011;63139;52.018;8.552;2023-07-20T03:22:43;10.65;;;8.95;;
74632;SDS011;63139;52.018;8.552;2023-07-20T03:25:12;12.40;;;9.52;;
74632;SDS011;63139;52.018;8.552;2023-07-20T03:27:39;13.27;;;10.82;;
74632;SDS011;63139;52.018;8.552;2023-07-20T03:30:09;11.75;;;10.50;;
74632;SDS011;63139;52.018;8.552;2023-07-20T03:32:38;17.17;;;9.15;;
74632;SDS011;63139;52.018;8.552;2023-07-20T03:35:06;12.57;;;9.55;;
74632;SDS011;63139;52.018;8.552;2023-07-20T03:37:34;12.20;;;9.48;;
74632;SDS011;63139;52.018;8.552;2023-07-20T03:40:03;17.38;;;10.63;;
74632;SDS011;63139;52.018;8.552;2023-07-20T03:42:32;13.05;;;10.07;;
74632;SDS011;63139;52.018;8.552;2023-07-20T03:45:00;12.65;;;10.30;;
74632;SDS011;63139;52.018;8.552;2023-07-20T03:47:32;11.73;;;9.38;;
74632;SDS011;63139;52.018;8.552;2023-07-20T03:50:00;13.20;;;8.43;;
74632;SDS011;63139;52.018;8.552;2023-07-20T03:52:30;12.98;;;8.82;;
74632;SDS011;63139;52.018;8.552;2023-07-20T03:54:58;12.10;;;8.80;;
74632;SDS011;63139;52.018;8.552;2023-07-20T03:57:26;11.45;;;8.20;;
74632;SDS011;63139;52.018;8.552;2023-07-20T03:59:54;10.45;;;8.35;;
74632;SDS011;63139;52.018;8.552;2023-07-20T04:02:22;10.88;;;8.10;;
74632;SDS011;63139;52.018;8.552;2023-07-20T04:04:51;11.25;;;7.97;;
74632;SDS011;63139;52.018;8.552;2023-07-20T04:07:19;14.57;;;7.53;;
74632;SDS011;63139;52.018;8.552;2023-07-20T04:09:48;12.73;;;8.52;;
74632;SDS011;63139;52.018;8.552;2023-07-20T04:12:16;8.60;;;7.00;;
74632;SDS011;63139;52.018;8.552;2023-07-20T04:14:43;9.88;;;5.97;;
74632;SDS011;63139;52.018;8.552;2023-07-20T04:17:11;6.05;;;5.00;;
74632;SDS011;63139;52.018;8.552;2023-07-20T04:19:39;7.20;;;4.63;;
74632;SDS011;63139;52.018;8.552;2023-07-20T04:22:09;5.25;;;4.13;;
74632;SDS011;63139;52.018;8.552;2023-07-20T04:24:37;5.13;;;3.67;;
74632;SDS011;63139;52.018;8.552;2023-07-20T04:27:05;7.20;;;4.30;;
74632;SDS011;63139;52.018;8.552;2023-07-20T04:29:33;5.22;;;3.72;;
74632;SDS011;63139;52.018;8.552;2023-07-20T04:32:01;5.10;;;3.97;;
74632;SDS011;63139;52.018;8.552;2023-07-20T04:34:29;6.45;;;5.25;;
74632;SDS011;63139;52.018;8.552;2023-07-20T04:36:57;5.97;;;4.80;;
74632;SDS011;63139;52.018;8.552;2023-07-20T04:39:27;4.95;;;4.32;;
74632;SDS011;63139;52.018;8.552;2023-07-20T04:42:03;6.22;;;4.97;;
74632;SDS011;63139;52.018;8.552;2023-07-20T04:44:32;8.63;;;5.38;;
74632;SDS011;63139;52.018;8.552;2023-07-20T04:47:00;6.20;;;4.95;;
74632;SDS011;63139;52.018;8.552;2023-07-20T04:49:32;6.78;;;5.30;;
74632;SDS011;63139;52.018;8.552;2023-07-20T04:52:00;7.97;;;6.43;;
74632;SDS011;63139;52.018;8.552;2023-07-20T04:54:31;8.45;;;5.30;;
74632;SDS011;63139;52.018;8.552;2023-07-20T04:56:58;7.28;;;5.95;;
74632;SDS011;63139;52.018;8.552;2023-07-20T04:59:27;7.43;;;6.00;;
74632;SDS011;63139;52.018;8.552;2023-07-20T05:01:55;6.30;;;5.00;;
74632;SDS011;63139;52.018;8.552;2023-07-20T05:04:22;7.38;;;6.22;;
74632;SDS011;63139;52.018;8.552;2023-07-20T05:07:03;7.28;;;5.32;;
74632;SDS011;63139;52.018;8.552;2023-07-20T05:09:33;7.35;;;5.60;;
74632;SDS011;63139;52.018;8.552;2023-07-20T05:12:01;5.10;;;4.60;;
74632;SDS011;63139;52.018;8.552;2023-07-20T05:14:29;4.60;;;4.05;;
74632;SDS011;63139;52.018;8.552;2023-07-20T05:16:57;4.70;;;4.30;;
74632;SDS011;63139;52.018;8.552;2023-07-20T05:19:25;4.35;;;3.80;;
74632;SDS011;63139;52.018;8.552;2023-07-20T05:21:53;4.13;;;3.53;;
74632;SDS011;63139;52.018;8.552;2023-07-20T05:24:22;3.58;;;3.28;;
74632;SDS011;63139;52.018;8.552;2023-07-20T05:26:51;4.20;;;3.53;;
74632;SDS011;63139;52.018;8.552;2023-07-20T05:29:20;4.18;;;3.70;;
74632;SDS011;63139;52.018;8.552;2023-07-20T05:31:48;3.70;;;3.30;;
74632;SDS011;63139;52.018;8.552;2023-07-20T05:34:16;3.80;;;3.13;;
74632;SDS011;63139;52.018;8.552;2023-07-20T05:36:43;8.02;;;3.30;;
74632;SDS011;63139;52.018;8.552;2023-07-20T05:39:29;3.30;;;3.00;;
74632;SDS011;63139;52.018;8.552;2023-07-20T05:41:58;4.60;;;3.15;;
74632;SDS011;63139;52.018;8.552;2023-07-20T05:44:26;3.92;;;2.80;;
74632;SDS011;63139;52.018;8.552;2023-07-20T05:46:54;2.88;;;2.50;;
74632;SDS011;63139;52.018;8.552;2023-07-20T05:49:24;2.95;;;2.67;;
74632;SDS011;63139;52.018;8.552;2023-07-20T05:51:51;3.95;;;2.58;;
74632;SDS011;63139;52.018;8.552;2023-07-20T05:54:19;2.50;;;2.30;;
74632;SDS011;63139;52.018;8.552;2023-07-20T05:56:47;2.55;;;2.08;;
74632;SDS011;63139;52.018;8.552;2023-07-20T05:59:17;1.95;;;1.80;;
74632;SDS011;63139;52.018;8.552;2023-07-20T06:01:45;3.25;;;2.10;;
74632;SDS011;63139;52.018;8.552;2023-07-20T06:04:15;1.70;;;1.60;;
74632;SDS011;63139;52.018;8.552;2023-07-20T06:06:43;2.05;;;1.38;;
74632;SDS011;63139;52.018;8.552;2023-07-20T06:09:11;1.70;;;1.60;;
74632;SDS011;63139;52.018;8.552;2023-07-20T06:11:38;3.38;;;1.70;;
74632;SDS011;63139;52.018;8.552;2023-07-20T06:14:06;2.17;;;1.60;;
74632;SDS011;63139;52.018;8.552;2023-07-20T06:16:36;1.80;;;1.50;;
74632;SDS011;63139;52.018;8.552;2023-07-20T06:19:04;1.52;;;1.42;;
74632;SDS011;63139;52.018;8.552;2023-07-20T06:21:31;1.90;;;1.70;;
74632;SDS011;63139;52.018;8.552;2023-07-20T06:23:59;4.78;;;1.83;;
74632;SDS011;63139;52.018;8.552;2023-07-20T06:26:27;2.33;;;1.92;;
74632;SDS011;63139;52.018;8.552;2023-07-20T06:28:56;2.97;;;1.77;;
74632;SDS011;63139;52.018;8.552;2023-07-20T06:31:24;1.83;;;1.55;;
74632;SDS011;63139;52.018;8.552;2023-07-20T06:33:53;2.10;;;1.85;;
74632;SDS011;63139;52.018;8.552;2023-07-20T06:36:21;1.60;;;1.50;;
74632;SDS011;63139;52.018;8.552;2023-07-20T06:38:49;2.00;;;1.65;;
74632;SDS011;63139;52.018;8.552;2023-07-20T06:41:20;2.35;;;1.63;;
74632;SDS011;63139;52.018;8.552;2023-07-20T06:43:51;2.70;;;1.73;;
74632;SDS011;63139;52.018;8.552;2023-07-20T06:46:24;2.05;;;1.40;;
74632;SDS011;63139;52.018;8.552;2023-07-20T06:48:54;2.20;;;1.60;;
74632;SDS011;63139;52.018;8.552;2023-07-20T06:51:26;1.75;;;1.50;;
74632;SDS011;63139;52.018;8.552;2023-07-20T06:53:54;1.55;;;1.45;;
74632;SDS011;63139;52.018;8.552;2023-07-20T06:56:22;1.77;;;1.42;;
74632;SDS011;63139;52.018;8.552;2023-07-20T06:58:52;2.40;;;1.58;;
74632;SDS011;63139;52.018;8.552;2023-07-20T07:01:19;1.73;;;1.50;;
74632;SDS011;63139;52.018;8.552;2023-07-20T07:03:49;2.50;;;1.38;;
74632;SDS011;63139;52.018;8.552;2023-07-20T07:06:22;2.00;;;1.35;;
74632;SDS011;63139;52.018;8.552;2023-07-20T07:08:52;1.95;;;1.38;;
74632;SDS011;63139;52.018;8.552;2023-07-20T07:11:20;3.45;;;1.33;;
74632;SDS011;63139;52.018;8.552;2023-07-20T07:13:48;1.73;;;1.10;;
74632;SDS011;63139;52.018;8.552;2023-07-20T07:16:17;1.45;;;1.20;;
74632;SDS011;63139;52.018;8.552;2023-07-20T07:18:50;1.38;;;1.27;;
74632;SDS011;63139;52.018;8.552;2023-07-20T07:21:18;1.17;;;1.10;;
74632;SDS011;63139;52.018;8.552;2023-07-20T07:23:47;1.00;;;0.90;;
74632;SDS011;63139;52.018;8.552;2023-07-20T07:26:15;1.52;;;1.20;;
74632;SDS011;63139;52.018;8.552;2023-07-20T07:28:43;1.52;;;1.10;;
74632;SDS011;63139;52.018;8.552;2023-07-20T07:31:11;1.17;;;1.10;;
74632;SDS011;63139;52.018;8.552;2023-07-20T07:33:39;3.03;;;1.20;;
74632;SDS011;63139;52.018;8.552;2023-07-20T07:36:07;2.55;;;1.00;;
74632;SDS011;63139;52.018;8.552;2023-07-20T07:38:35;1.83;;;1.17;;
74632;SDS011;63139;52.018;8.552;2023-07-20T07:41:25;1.77;;;1.33;;
74632;SDS011;63139;52.018;8.552;2023-07-20T07:43:53;1.33;;;1.15;;
74632;SDS011;63139;52.018;8.552;2023-07-20T07:46:20;2.00;;;1.25;;
74632;SDS011;63139;52.018;8.552;2023-07-20T07:48:49;1.50;;;1.08;;
74632;SDS011;63139;52.018;8.552;2023-07-20T07:51:17;1.08;;;1.08;;
74632;SDS011;63139;52.018;8.552;2023-07-20T07:53:45;1.30;;;0.98;;
74632;SDS011;63139;52.018;8.552;2023-07-20T07:56:16;1.50;;;1.02;;
74632;SDS011;63139;52.018;8.552;2023-07-20T07:58:49;2.53;;;0.98;;
74632;SDS011;63139;52.018;8.552;2023-07-20T08:01:18;1.20;;;1.02;;
74632;SDS011;63139;52.018;8.552;2023-07-20T08:03:46;1.10;;;0.93;;
74632;SDS011;63139;52.018;8.552;2023-07-20T08:06:14;1.50;;;0.93;;
74632;SDS011;63139;52.018;8.552;2023-07-20T08:08:42;1.67;;;1.05;;
74632;SDS011;63139;52.018;8.552;2023-07-20T08:11:10;1.70;;;1.00;;
74632;SDS011;63139;52.018;8.552;2023-07-20T08:13:41;1.35;;;1.02;;
74632;SDS011;63139;52.018;8.552;2023-07-20T08:16:10;1.30;;;0.90;;
74632;SDS011;63139;52.018;8.552;2023-07-20T08:18:38;8.07;;;1.55;;
74632;SDS011;63139;52.018;8.552;2023-07-20T08:21:06;2.75;;;1.02;;
74632;SDS011;63139;52.018;8.552;2023-07-20T08:23:34;1.25;;;0.98;;
74632;SDS011;63139;52.018;8.552;2023-07-20T08:26:01;1.38;;;1.10;;
74632;SDS011;63139;52.018;8.552;2023-07-20T08:28:29;1.65;;;0.93;;
74632;SDS011;63139;52.018;8.552;2023-07-20T08:30:57;1.20;;;1.00;;
74632;SDS011;63139;52.018;8.552;2023-07-20T08:33:27;1.00;;;0.90;;
74632;SDS011;63139;52.018;8.552;2023-07-20T08:35:56;4.55;;;1.00;;
74632;SDS011;63139;52.018;8.552;2023-07-20T08:38:24;0.93;;;0.80;;
74632;SDS011;63139;52.018;8.552;2023-07-20T08:40:52;1.00;;;1.00;;
74632;SDS011;63139;52.018;8.552;2023-07-20T08:43:21;0.80;;;0.80;;
74632;SDS011;63139;52.018;8.552;2023-07-20T08:45:50;0.90;;;0.90;;
74632;SDS011;63139;52.018;8.552;2023-07-20T08:48:21;0.85;;;0.85;;
74632;SDS011;63139;52.018;8.552;2023-07-20T08:50:51;0.85;;;0.80;;
74632;SDS011;63139;52.018;8.552;2023-07-20T08:53:20;1.50;;;1.40;;
74632;SDS011;63139;52.018;8.552;2023-07-20T08:55:48;1.20;;;0.90;;
74632;SDS011;63139;52.018;8.552;2023-07-20T08:58:18;1.10;;;0.90;;
74632;SDS011;63139;52.018;8.552;2023-07-20T09:00:46;1.33;;;0.90;;
74632;SDS011;63139;52.018;8.552;2023-07-20T09:03:17;1.40;;;0.80;;
74632;SDS011;63139;52.018;8.552;2023-07-20T09:05:46;1.42;;;0.80;;
74632;SDS011;63139;52.018;8.552;2023-07-20T09:08:16;1.45;;;0.90;;
74632;SDS011;63139;52.018;8.552;2023-07-20T09:10:44;1.48;;;0.90;;
74632;SDS011;63139;52.018;8.552;2023-07-20T09:13:13;2.72;;;0.90;;
74632;SDS011;63139;52.018;8.552;2023-07-20T09:15:45;0.80;;;0.80;;
74632;SDS011;63139;52.018;8.552;2023-07-20T09:18:23;1.67;;;0.80;;
74632;SDS011;63139;52.018;8.552;2023-07-20T09:20:52;2.13;;;0.80;;
74632;SDS011;63139;52.018;8.552;2023-07-20T09:23:30;0.80;;;0.80;;
74632;SDS011;63139;52.018;8.552;2023-07-20T09:28:26;0.93;;;0.80;;
74632;SDS011;63139;52.018;8.552;2023-07-20T09:30:55;0.80;;;0.80;;
74632;SDS011;63139;52.018;8.552;2023-07-20T09:33:25;1.30;;;0.98;;
74632;SDS011;63139;52.018;8.552;2023-07-20T09:35:54;0.75;;;0.75;;
74632;SDS011;63139;52.018;8.552;2023-07-20T09:38:27;1.77;;;0.80;;
74632;SDS011;63139;52.018;8.552;2023-07-20T09:41:17;0.75;;;0.70;;
74632;SDS011;63139;52.018;8.552;2023-07-20T09:43:48;1.08;;;0.70;;
74632;SDS011;63139;52.018;8.552;2023-07-20T09:46:17;0.70;;;0.70;;
74632;SDS011;63139;52.018;8.552;2023-07-20T09:48:52;1.45;;;0.82;;
74632;SDS011;63139;52.018;8.552;2023-07-20T09:51:24;0.80;;;0.80;;
74632;SDS011;63139;52.018;8.552;2023-07-20T09:53:52;1.30;;;0.80;;
74632;SDS011;63139;52.018;8.552;2023-07-20T09:56:22;1.80;;;0.80;;
74632;SDS011;63139;52.018;8.552;2023-07-20T09:58:51;0.70;;;0.70;;
74632;SDS011;63139;52.018;8.552;2023-07-20T10:01:20;1.48;;;0.85;;
74632;SDS011;63139;52.018;8.552;2023-07-20T10:03:52;1.35;;;0.80;;
74632;SDS011;63139;52.018;8.552;2023-07-20T10:06:23;0.70;;;0.70;;
74632;SDS011;63139;52.018;8.552;2023-07-20T10:08:52;0.80;;;0.80;;
74632;SDS011;63139;52.018;8.552;2023-07-20T10:11:21;0.77;;;0.70;;
74632;SDS011;63139;52.018;8.552;2023-07-20T10:13:55;0.77;;;0.70;;
74632;SDS011;63139;52.018;8.552;2023-07-20T10:16:27;0.85;;;0.80;;
74632;SDS011;63139;52.018;8.552;2023-07-20T10:19:01;0.70;;;0.70;;
74632;SDS011;63139;52.018;8.552;2023-07-20T10:21:48;0.73;;;0.73;;
74632;SDS011;63139;52.018;8.552;2023-07-20T10:24:25;2.90;;;0.80;;
74632;SDS011;63139;52.018;8.552;2023-07-20T10:26:55;1.27;;;0.90;;
74632;SDS011;63139;52.018;8.552;2023-07-20T10:29:23;0.80;;;0.80;;
74632;SDS011;63139;52.018;8.552;2023-07-20T10:31:55;2.92;;;0.90;;
74632;SDS011;63139;52.018;8.552;2023-07-20T10:34:24;1.10;;;0.80;;
74632;SDS011;63139;52.018;8.552;2023-07-20T10:36:52;0.73;;;0.73;;
74632;SDS011;63139;52.018;8.552;2023-07-20T10:39:24;0.90;;;0.90;;
74632;SDS011;63139;52.018;8.552;2023-07-20T10:42:01;1.67;;;0.80;;
74632;SDS011;63139;52.018;8.552;2023-07-20T10:44:31;0.80;;;0.80;;
74632;SDS011;63139;52.018;8.552;2023-07-20T10:46:58;1.08;;;0.90;;
74632;SDS011;63139;52.018;8.552;2023-07-20T10:49:29;0.80;;;0.80;;
74632;SDS011;63139;52.018;8.552;2023-07-20T10:52:03;3.10;;;1.00;;
74632;SDS011;63139;52.018;8.552;2023-07-20T10:54:34;1.95;;;0.90;;
74632;SDS011;63139;52.018;8.552;2023-07-20T10:57:29;1.23;;;0.95;;
74632;SDS011;63139;52.018;8.552;2023-07-20T11:00:07;1.45;;;1.10;;
74632;SDS011;63139;52.018;8.552;2023-07-20T11:02:44;0.80;;;0.80;;
74632;SDS011;63139;52.018;8.552;2023-07-20T11:05:32;1.15;;;1.08;;
74632;SDS011;63139;52.018;8.552;2023-07-20T11:08:04;0.90;;;0.90;;
74632;SDS011;63139;52.018;8.552;2023-07-20T11:10:33;1.20;;;0.90;;
74632;SDS011;63139;52.018;8.552;2023-07-20T11:13:18;1.20;;;1.00;;
74632;SDS011;63139;52.018;8.552;2023-07-20T11:15:48;3.00;;;1.17;;
74632;SDS011;63139;52.018;8.552;2023-07-20T11:18:29;1.33;;;1.23;;
74632;SDS011;63139;52.018;8.552;2023-07-20T11:20:58;1.48;;;1.13;;
74632;SDS011;63139;52.018;8.552;2023-07-20T11:23:26;2.20;;;1.20;;
74632;SDS011;63139;52.018;8.552;2023-07-20T11:25:57;2.33;;;1.20;;
74632;SDS011;63139;52.018;8.552;2023-07-20T11:28:27;1.13;;;1.10;;
74632;SDS011;63139;52.018;8.552;2023-07-20T11:30:57;1.13;;;1.00;;
74632;SDS011;63139;52.018;8.552;2023-07-20T11:33:26;1.50;;;1.20;;
74632;SDS011;63139;52.018;8.552;2023-07-20T11:35:55;1.38;;;1.27;;
74632;SDS011;63139;52.018;8.552;2023-07-20T11:38:23;1.25;;;1.20;;
74632;SDS011;63139;52.018;8.552;2023-07-20T11:40:51;1.25;;;1.25;;
74632;SDS011;63139;52.018;8.552;2023-07-20T11:43:19;1.42;;;1.33;;
74632;SDS011;63139;52.018;8.552;2023-07-20T11:45:50;1.70;;;1.60;;
74632;SDS011;63139;52.018;8.552;2023-07-20T11:48:19;3.22;;;1.55;;
74632;SDS011;63139;52.018;8.552;2023-07-20T11:50:47;1.60;;;1.50;;
74632;SDS011;63139;52.018;8.552;2023-07-20T11:53:14;1.30;;;1.30;;
74632;SDS011;63139;52.018;8.552;2023-07-20T11:55:43;4.32;;;1.70;;
74632;SDS011;63139;52.018;8.552;2023-07-20T11:58:12;1.88;;;1.50;;
74632;SDS011;63139;52.018;8.552;2023-07-20T12:00:43;1.63;;;1.50;;
74632;SDS011;63139;52.018;8.552;2023-07-20T12:03:13;1.48;;;1.38;;
74632;SDS011;63139;52.018;8.552;2023-07-20T12:05:41;1.70;;;1.60;;
74632;SDS011;63139;52.018;8.552;2023-07-20T12:08:26;1.95;;;1.58;;
74632;SDS011;63139;52.018;8.552;2023-07-20T12:10:54;1.80;;;1.70;;
74632;SDS011;63139;52.018;8.552;2023-07-20T12:13:22;1.70;;;1.60;;
74632;SDS011;63139;52.018;8.552;2023-07-20T12:15:52;3.28;;;1.60;;
74632;SDS011;63139;52.018;8.552;2023-07-20T12:18:23;1.70;;;1.60;;
74632;SDS011;63139;52.018;8.552;2023-07-20T12:21:02;1.73;;;1.63;;
74632;SDS011;63139;52.018;8.552;2023-07-20T12:23:34;1.67;;;1.58;;
74632;SDS011;63139;52.018;8.552;2023-07-20T12:26:05;2.40;;;1.52;;
74632;SDS011;63139;52.018;8.552;2023-07-20T12:28:35;1.80;;;1.70;;
74632;SDS011;63139;52.018;8.552;2023-07-20T12:31:07;1.60;;;1.50;;
74632;SDS011;63139;52.018;8.552;2023-07-20T12:33:37;2.13;;;1.52;;
74632;SDS011;63139;52.018;8.552;2023-07-20T12:36:05;1.75;;;1.40;;
74632;SDS011;63139;52.018;8.552;2023-07-20T12:38:33;1.60;;;1.50;;
74632;SDS011;63139;52.018;8.552;2023-07-20T12:41:01;1.50;;;1.25;;
74632;SDS011;63139;52.018;8.552;2023-07-20T12:43:30;1.20;;;1.20;;
74632;SDS011;63139;52.018;8.552;2023-07-20T12:45:59;1.25;;;1.25;;
74632;SDS011;63139;52.018;8.552;2023-07-20T12:48:27;1.50;;;1.30;;
74632;SDS011;63139;52.018;8.552;2023-07-20T12:50:56;1.10;;;1.10;;
74632;SDS011;63139;52.018;8.552;2023-07-20T12:53:24;1.63;;;1.40;;
74632;SDS011;63139;52.018;8.552;2023-07-20T12:55:51;1.30;;;1.20;;
74632;SDS011;63139;52.018;8.552;2023-07-20T12:58:19;1.38;;;1.27;;
74632;SDS011;63139;52.018;8.552;2023-07-20T13:00:47;1.20;;;1.10;;
74632;SDS011;63139;52.018;8.552;2023-07-20T13:03:15;0.95;;;0.90;;
74632;SDS011;63139;52.018;8.552;2023-07-20T13:05:48;1.02;;;0.90;;
74632;SDS011;63139;52.018;8.552;2023-07-20T13:08:25;0.90;;;0.90;;
74632;SDS011;63139;52.018;8.552;2023-07-20T13:10:53;0.90;;;0.90;;
74632;SDS011;63139;52.018;8.552;2023-07-20T13:13:21;0.95;;;0.95;;
74632;SDS011;63139;52.018;8.552;2023-07-20T13:15:49;1.50;;;1.20;;
74632;SDS011;63139;52.018;8.552;2023-07-20T13:18:17;1.23;;;1.00;;
74632;SDS011;63139;52.018;8.552;2023-07-20T13:20:45;1.65;;;0.75;;
74632;SDS011;63139;52.018;8.552;2023-07-20T13:23:13;1.02;;;0.90;;
74632;SDS011;63139;52.018;8.552;2023-07-20T13:25:42;0.80;;;0.80;;
74632;SDS011;63139;52.018;8.552;2023-07-20T13:28:10;0.90;;;0.90;;
74632;SDS011;63139;52.018;8.552;2023-07-20T13:30:39;1.52;;;0.70;;
74632;SDS011;63139;52.018;8.552;2023-07-20T13:33:07;0.75;;;0.75;;
74632;SDS011;63139;52.018;8.552;2023-07-20T13:35:38;0.95;;;0.80;;
74632;SDS011;63139;52.018;8.552;2023-07-20T13:38:09;0.80;;;0.80;;
74632;SDS011;63139;52.018;8.552;2023-07-20T13:40:37;2.03;;;0.90;;
74632;SDS011;63139;52.018;8.552;2023-07-20T13:43:06;1.17;;;0.90;;
74632;SDS011;63139;52.018;8.552;2023-07-20T13:45:34;0.85;;;0.80;;
74632;SDS011;63139;52.018;8.552;2023-07-20T13:48:01;0.60;;;0.60;;
74632;SDS011;63139;52.018;8.552;2023-07-20T13:50:32;1.83;;;0.80;;
74632;SDS011;63139;52.018;8.552;2023-07-20T13:53:03;1.05;;;0.80;;
74632;SDS011;63139;52.018;8.552;2023-07-20T13:55:34;0.98;;;0.80;;
74632;SDS011;63139;52.018;8.552;2023-07-20T13:58:07;0.95;;;0.85;;
74632;SDS011;63139;52.018;8.552;2023-07-20T14:00:38;1.10;;;1.00;;
74632;SDS011;63139;52.018;8.552;2023-07-20T14:03:06;0.98;;;0.90;;
74632;SDS011;63139;52.018;8.552;2023-07-20T14:05:38;0.80;;;0.80;;
74632;SDS011;63139;52.018;8.552;2023-07-20T14:08:09;1.00;;;0.90;;
74632;SDS011;63139;52.018;8.552;2023-07-20T14:10:37;0.80;;;0.80;;
74632;SDS011;63139;52.018;8.552;2023-07-20T14:13:12;1.20;;;0.90;;
74632;SDS011;63139;52.018;8.552;2023-07-20T14:15:40;1.15;;;0.80;;
74632;SDS011;63139;52.018;8.552;2023-07-20T14:18:08;0.80;;;0.80;;
74632;SDS011;63139;52.018;8.552;2023-07-20T14:20:36;1.38;;;0.80;;
74632;SDS011;63139;52.018;8.552;2023-07-20T14:23:04;0.98;;;0.77;;
74632;SDS011;63139;52.018;8.552;2023-07-20T14:25:33;0.77;;;0.68;;
74632;SDS011;63139;52.018;8.552;2023-07-20T14:28:03;1.00;;;0.90;;
74632;SDS011;63139;52.018;8.552;2023-07-20T14:30:33;0.80;;;0.80;;
74632;SDS011;63139;52.018;8.552;2023-07-20T14:33:01;2.50;;;0.95;;
74632;SDS011;63139;52.018;8.552;2023-07-20T14:35:29;7.03;;;1.45;;
74632;SDS011;63139;52.018;8.552;2023-07-20T14:37:57;0.82;;;0.82;;
74632;SDS011;63139;52.018;8.552;2023-07-20T14:40:25;3.22;;;0.88;;
74632;SDS011;63139;52.018;8.552;2023-07-20T14:42:53;2.97;;;1.00;;
74632;SDS011;63139;52.018;8.552;2023-07-20T14:45:21;2.00;;;1.00;;
74632;SDS011;63139;52.018;8.552;2023-07-20T14:47:50;3.65;;;0.98;;
74632;SDS011;63139;52.018;8.552;2023-07-20T14:50:21;4.80;;;1.02;;
74632;SDS011;63139;52.018;8.552;2023-07-20T14:52:49;1.33;;;0.90;;
74632;SDS011;63139;52.018;8.552;2023-07-20T14:55:16;0.82;;;0.82;;
74632;SDS011;63139;52.018;8.552;2023-07-20T14:57:44;0.95;;;0.95;;
74632;SDS011;63139;52.018;8.552;2023-07-20T15:00:13;1.40;;;1.00;;
74632;SDS011;63139;52.018;8.552;2023-07-20T15:02:42;1.63;;;1.13;;